createdAt,value
2019-02-12T00:00:48.922Z,0
2019-02-12T00:01:58.833Z,0
2019-02-12T00:03:08.761Z,0
2019-02-12T00:04:18.688Z,0
2019-02-12T00:05:28.637Z,0
2019-02-12T00:06:38.554Z,0
2019-02-12T00:07:48.508Z,0
2019-02-12T00:08:58.424Z,0
2019-02-12T00:10:08.340Z,0
2019-02-12T00:11:18.260Z,0
2019-02-12T00:12:28.170Z,0
2019-02-12T00:13:38.089Z,0
2019-02-12T00:14:48.012Z,0
2019-02-12T00:15:57.942Z,0
2019-02-12T00:17:07.951Z,0
2019-02-12T00:18:17.859Z,0
2019-02-12T00:19:27.819Z,0
2019-02-12T00:20:39.631Z,0
2019-02-12T00:21:49.544Z,0
2019-02-12T00:22:59.606Z,0
2019-02-12T00:24:09.515Z,0
2019-02-12T00:25:19.460Z,0
2019-02-12T00:26:29.370Z,0
2019-02-12T00:27:39.285Z,0
2019-02-12T00:28:49.341Z,0
2019-02-12T00:29:59.254Z,0
2019-02-12T00:31:09.168Z,0
2019-02-12T00:32:19.078Z,0
2019-02-12T00:33:28.987Z,0
2019-02-12T00:34:38.753Z,0
2019-02-12T00:35:48.664Z,0
2019-02-12T00:36:58.578Z,0
2019-02-12T00:38:08.494Z,0
2019-02-12T00:39:18.412Z,0
2019-02-12T00:40:28.425Z,0
2019-02-12T00:41:38.343Z,0
2019-02-12T00:42:48.261Z,0
2019-02-12T00:43:58.187Z,0
2019-02-12T00:45:08.174Z,0
2019-02-12T00:46:18.186Z,0
2019-02-12T00:47:28.159Z,0
2019-02-12T00:48:38.072Z,0
2019-02-12T00:49:47.985Z,0
2019-02-12T00:50:57.951Z,0
2019-02-12T00:52:07.609Z,0
2019-02-12T00:53:17.518Z,0
2019-02-12T00:54:29.016Z,0
2019-02-12T00:55:38.927Z,0
2019-02-12T00:56:48.846Z,0
2019-02-12T00:57:58.860Z,0
2019-02-12T00:59:08.772Z,0
2019-02-12T01:00:18.693Z,0
2019-02-12T01:01:28.604Z,0
2019-02-12T01:02:38.516Z,0
2019-02-12T01:03:48.592Z,0
2019-02-12T01:04:58.510Z,0
2019-02-12T01:06:08.420Z,0
2019-02-12T01:07:18.089Z,0
2019-02-12T01:08:28.011Z,0
2019-02-12T01:09:37.924Z,0
2019-02-12T01:10:47.836Z,0
2019-02-12T01:11:57.751Z,0
2019-02-12T01:13:07.679Z,0
2019-02-12T01:14:17.587Z,0
2019-02-12T01:15:27.606Z,0
2019-02-12T01:16:37.590Z,0
2019-02-12T01:17:47.500Z,0
2019-02-12T01:18:57.427Z,0
2019-02-12T01:20:07.371Z,0
2019-02-12T01:21:17.281Z,0
2019-02-12T01:22:27.201Z,0
2019-02-12T01:23:37.128Z,0
2019-02-12T01:24:47.065Z,0
2019-02-12T01:25:56.981Z,0
2019-02-12T01:27:06.892Z,0
2019-02-12T01:28:16.817Z,0
2019-02-12T01:29:26.728Z,0
2019-02-12T01:30:36.636Z,0
2019-02-12T01:31:46.580Z,0
2019-02-12T01:32:56.595Z,0
2019-02-12T01:34:06.288Z,0
2019-02-12T01:35:16.211Z,0
2019-02-12T01:36:26.121Z,0
2019-02-12T01:37:35.790Z,0
2019-02-12T01:38:45.717Z,0
2019-02-12T01:39:55.627Z,0
2019-02-12T01:41:05.550Z,0
2019-02-12T01:42:15.474Z,0
2019-02-12T01:43:25.430Z,0
2019-02-12T01:44:35.351Z,0
2019-02-12T01:45:45.269Z,0
2019-02-12T01:46:55.185Z,0
2019-02-12T01:48:05.102Z,0
2019-02-12T01:49:15.014Z,0
2019-02-12T01:50:25.033Z,0
2019-02-12T01:51:42.290Z,0
2019-02-12T01:52:52.198Z,0
2019-02-12T01:54:01.868Z,0
2019-02-12T01:55:11.790Z,0
2019-02-12T01:56:21.703Z,0
2019-02-12T01:57:31.629Z,0
2019-02-12T01:58:41.537Z,0
2019-02-12T01:59:51.447Z,0
2019-02-12T02:01:01.372Z,0
2019-02-12T02:02:11.371Z,0
2019-02-12T02:03:21.301Z,0
2019-02-12T02:04:31.212Z,0
2019-02-12T02:05:41.128Z,0
2019-02-12T02:06:51.037Z,0
2019-02-12T02:08:00.948Z,0
2019-02-12T02:09:10.861Z,0
2019-02-12T02:10:20.777Z,0
2019-02-12T02:11:30.689Z,0
2019-02-12T02:12:40.629Z,0
2019-02-12T02:13:50.717Z,0
2019-02-12T02:15:00.635Z,0
2019-02-12T02:16:10.551Z,0
2019-02-12T02:17:20.468Z,0
2019-02-12T02:18:30.378Z,0
2019-02-12T02:19:40.340Z,0
2019-02-12T02:20:50.272Z,0
2019-02-12T02:22:00.190Z,0
2019-02-12T02:23:10.107Z,0
2019-02-12T02:24:20.031Z,0
2019-02-12T02:25:30.054Z,0
2019-02-12T02:26:39.966Z,0
2019-02-12T02:27:49.876Z,0
2019-02-12T02:28:59.786Z,0
2019-02-12T02:30:09.891Z,0
2019-02-12T02:31:19.910Z,0
2019-02-12T02:32:29.856Z,0
2019-02-12T02:33:39.770Z,0
2019-02-12T02:34:49.685Z,0
2019-02-12T02:35:59.597Z,0
2019-02-12T02:37:09.637Z,0
2019-02-12T02:38:19.558Z,0
2019-02-12T02:39:29.534Z,0
2019-02-12T02:40:39.520Z,0
2019-02-12T02:41:49.477Z,0
2019-02-12T02:42:59.527Z,0
2019-02-12T02:44:09.444Z,0
2019-02-12T02:45:19.410Z,0
2019-02-12T02:46:29.326Z,0
2019-02-12T02:47:39.249Z,0
2019-02-12T02:48:49.189Z,0
2019-02-12T02:49:59.107Z,0
2019-02-12T02:51:09.031Z,0
2019-02-12T02:52:18.968Z,0
2019-02-12T02:53:28.880Z,0
2019-02-12T02:54:38.792Z,0
2019-02-12T02:55:48.718Z,0
2019-02-12T02:56:58.655Z,0
2019-02-12T02:58:08.595Z,0
2019-02-12T02:59:18.513Z,0
2019-02-12T03:00:28.493Z,0
2019-02-12T03:01:38.438Z,0
2019-02-12T03:02:48.365Z,0
2019-02-12T03:03:58.371Z,0
2019-02-12T03:05:08.320Z,0
2019-02-12T03:06:18.348Z,0
2019-02-12T03:07:28.018Z,0
2019-02-12T03:08:37.934Z,0
2019-02-12T03:09:47.868Z,0
2019-02-12T03:10:59.531Z,0
2019-02-12T03:12:09.495Z,0
2019-02-12T03:13:19.411Z,0
2019-02-12T03:14:29.333Z,0
2019-02-12T03:15:39.260Z,0
2019-02-12T03:16:49.170Z,0
2019-02-12T03:17:59.181Z,0
2019-02-12T03:19:09.101Z,0
2019-02-12T03:20:19.016Z,0
2019-02-12T03:21:28.932Z,0
2019-02-12T03:22:38.860Z,0
2019-02-12T03:23:48.921Z,0
2019-02-12T03:24:58.832Z,0
2019-02-12T03:26:08.820Z,0
2019-02-12T03:27:18.504Z,0
2019-02-12T03:28:28.445Z,0
2019-02-12T03:29:38.488Z,0
2019-02-12T03:30:48.427Z,0
2019-02-12T03:31:58.413Z,0
2019-02-12T03:33:08.107Z,0
2019-02-12T03:34:18.082Z,0
2019-02-12T03:35:28.111Z,0
2019-02-12T03:36:38.028Z,0
2019-02-12T03:37:47.953Z,0
2019-02-12T03:38:57.858Z,0
2019-02-12T03:40:07.774Z,0
2019-02-12T03:41:17.740Z,0
2019-02-12T03:42:27.650Z,0
2019-02-12T03:43:37.581Z,0
2019-02-12T03:44:47.501Z,0
2019-02-12T03:45:57.470Z,0
2019-02-12T03:47:07.494Z,0
2019-02-12T03:48:17.157Z,0
2019-02-12T03:49:27.097Z,0
2019-02-12T03:50:37.040Z,0
2019-02-12T03:51:46.974Z,0
2019-02-12T03:52:56.976Z,0
2019-02-12T03:54:06.901Z,0
2019-02-12T03:55:16.838Z,0
2019-02-12T03:56:26.755Z,0
2019-02-12T03:57:36.669Z,0
2019-02-12T03:58:46.677Z,0
2019-02-12T03:59:56.601Z,0
2019-02-12T04:01:06.518Z,0
2019-02-12T04:02:16.452Z,0
2019-02-12T04:03:26.369Z,0
2019-02-12T04:04:36.092Z,0
2019-02-12T04:05:46.015Z,0
2019-02-12T04:06:55.924Z,0
2019-02-12T04:08:05.849Z,0
2019-02-12T04:09:15.758Z,0
2019-02-12T04:10:25.728Z,0
2019-02-12T04:11:35.655Z,0
2019-02-12T04:12:45.579Z,0
2019-02-12T04:13:55.509Z,0
2019-02-12T04:15:05.228Z,0
2019-02-12T04:16:15.248Z,0
2019-02-12T04:17:25.166Z,0
2019-02-12T04:18:35.086Z,0
2019-02-12T04:19:45.009Z,0
2019-02-12T04:20:54.934Z,0
2019-02-12T04:22:04.942Z,0
2019-02-12T04:23:14.893Z,0
2019-02-12T04:24:24.823Z,0
2019-02-12T04:25:34.488Z,0
2019-02-12T04:26:44.400Z,0
2019-02-12T04:27:55.453Z,0
2019-02-12T04:29:05.529Z,0
2019-02-12T04:30:15.474Z,0
2019-02-12T04:31:25.407Z,0
2019-02-12T04:32:35.318Z,0
2019-02-12T04:33:45.417Z,0
2019-02-12T04:34:55.336Z,0
2019-02-12T04:36:05.267Z,0
2019-02-12T04:37:15.220Z,0
2019-02-12T04:38:25.156Z,0
2019-02-12T04:39:35.140Z,0
2019-02-12T04:40:45.054Z,0
2019-02-12T04:41:54.965Z,0
2019-02-12T04:43:04.888Z,0
2019-02-12T04:44:14.812Z,0
2019-02-12T04:45:24.830Z,0
2019-02-12T04:46:34.772Z,0
2019-02-12T04:47:44.685Z,0
2019-02-12T04:48:54.609Z,0
2019-02-12T04:50:04.522Z,0
2019-02-12T04:51:14.543Z,0
2019-02-12T04:52:34.110Z,0
2019-02-12T04:53:44.019Z,0
2019-02-12T04:54:53.962Z,0
2019-02-12T04:56:03.877Z,0
2019-02-12T04:57:13.883Z,0
2019-02-12T04:58:24.004Z,0
2019-02-12T04:59:33.918Z,0
2019-02-12T05:00:43.845Z,0
2019-02-12T05:01:53.758Z,0
2019-02-12T05:03:03.690Z,0
2019-02-12T05:04:13.611Z,0
2019-02-12T05:05:23.522Z,0
2019-02-12T05:06:33.439Z,0
2019-02-12T05:07:43.509Z,0
2019-02-12T05:08:53.481Z,0
2019-02-12T05:10:03.409Z,0
2019-02-12T05:11:13.328Z,0
2019-02-12T05:12:23.250Z,0
2019-02-12T05:13:33.171Z,0
2019-02-12T05:14:43.267Z,0
2019-02-12T05:15:53.179Z,0
2019-02-12T05:17:03.100Z,0
2019-02-12T05:18:13.028Z,0
2019-02-12T05:19:22.942Z,0
2019-02-12T05:20:32.909Z,0
2019-02-12T05:21:42.852Z,0
2019-02-12T05:22:53.555Z,0
2019-02-12T05:24:03.980Z,0
2019-02-12T05:25:13.928Z,0
2019-02-12T05:26:23.953Z,0
2019-02-12T05:27:33.935Z,0
2019-02-12T05:28:43.889Z,0
2019-02-12T05:29:53.805Z,0
2019-02-12T05:31:03.721Z,0
2019-02-12T05:32:13.638Z,0
2019-02-12T05:33:23.563Z,0
2019-02-12T05:34:33.495Z,0
2019-02-12T05:35:43.413Z,0
2019-02-12T05:36:53.349Z,0
2019-02-12T05:38:03.418Z,0
2019-02-12T05:39:13.351Z,0
2019-02-12T05:40:23.268Z,0
2019-02-12T05:41:33.207Z,0
2019-02-12T05:42:43.126Z,0
2019-02-12T05:43:53.148Z,0
2019-02-12T05:45:03.068Z,0
2019-02-12T05:46:12.734Z,0
2019-02-12T05:47:22.648Z,0
2019-02-12T05:48:32.589Z,0
2019-02-12T05:49:42.631Z,0
2019-02-12T05:50:52.595Z,0
2019-02-12T05:52:02.512Z,0
2019-02-12T05:53:13.945Z,0
2019-02-12T05:54:23.867Z,0
2019-02-12T05:55:33.636Z,0
2019-02-12T05:56:43.579Z,0
2019-02-12T05:57:53.499Z,0
2019-02-12T05:59:03.420Z,0
2019-02-12T06:00:13.387Z,0
2019-02-12T06:01:23.363Z,0
2019-02-12T06:02:33.276Z,0
2019-02-12T06:03:43.188Z,0
2019-02-12T06:04:53.159Z,0
2019-02-12T06:06:03.074Z,0
2019-02-12T06:07:13.087Z,0
2019-02-12T06:08:22.996Z,0
2019-02-12T06:09:32.938Z,0
2019-02-12T06:10:43.056Z,0
2019-02-12T06:11:53.007Z,0
2019-02-12T06:13:02.721Z,0
2019-02-12T06:14:12.647Z,0
2019-02-12T06:15:22.565Z,0
2019-02-12T06:16:32.500Z,0
2019-02-12T06:17:42.431Z,0
2019-02-12T06:18:52.405Z,0
2019-02-12T06:20:02.364Z,0
2019-02-12T06:21:12.285Z,0
2019-02-12T06:22:22.205Z,0
2019-02-12T06:23:32.113Z,0
2019-02-12T06:24:42.035Z,0
2019-02-12T06:25:51.955Z,0
2019-02-12T06:27:01.875Z,0
2019-02-12T06:28:11.798Z,0
2019-02-12T06:29:21.707Z,0
2019-02-12T06:30:31.761Z,0
2019-02-12T06:31:41.453Z,0
2019-02-12T06:32:51.366Z,0
2019-02-12T06:34:01.298Z,0
2019-02-12T06:35:11.231Z,0
2019-02-12T06:36:21.202Z,0
2019-02-12T06:37:31.138Z,0
2019-02-12T06:38:41.071Z,0
2019-02-12T06:39:51.017Z,0
2019-02-12T06:41:00.936Z,0
2019-02-12T06:42:10.905Z,0
2019-02-12T06:43:20.584Z,0
2019-02-12T06:44:30.515Z,0
2019-02-12T06:45:40.465Z,0
2019-02-12T06:46:50.405Z,0
2019-02-12T06:48:00.423Z,0
2019-02-12T06:49:10.339Z,0
2019-02-12T06:50:20.278Z,5
2019-02-12T06:51:30.186Z,5
2019-02-12T06:52:40.545Z,5
2019-02-12T06:53:50.529Z,5
2019-02-12T06:55:00.489Z,5
2019-02-12T06:56:10.442Z,5
2019-02-12T06:57:20.388Z,5
2019-02-12T06:58:30.310Z,10
2019-02-12T06:59:40.280Z,10
2019-02-12T07:00:50.218Z,10
2019-02-12T07:02:00.136Z,10
2019-02-12T07:03:10.065Z,15
2019-02-12T07:04:19.994Z,15
2019-02-12T07:05:30.004Z,15
2019-02-12T07:06:39.926Z,15
2019-02-12T07:07:49.873Z,20
2019-02-12T07:08:59.798Z,20
2019-02-12T07:10:10.238Z,20
2019-02-12T07:11:20.254Z,20
2019-02-12T07:12:30.175Z,25
2019-02-12T07:13:40.113Z,25
2019-02-12T07:14:50.038Z,25
2019-02-12T07:15:59.959Z,25
2019-02-12T07:17:09.938Z,30
2019-02-12T07:18:19.848Z,30
2019-02-12T07:19:29.795Z,30
2019-02-12T07:20:39.729Z,30
2019-02-12T07:21:49.656Z,30
2019-02-12T07:22:59.622Z,35
2019-02-12T07:24:09.535Z,35
2019-02-12T07:25:19.457Z,35
2019-02-12T07:26:29.379Z,35
2019-02-12T07:27:39.309Z,40
2019-02-12T07:28:49.270Z,40
2019-02-12T07:29:59.199Z,40
2019-02-12T07:31:09.135Z,45
2019-02-12T07:32:19.093Z,45
2019-02-12T07:33:29.019Z,45
2019-02-12T07:34:39.045Z,45
2019-02-12T07:35:49.000Z,50
2019-02-12T07:36:58.964Z,50
2019-02-12T07:38:08.907Z,55
2019-02-12T07:39:18.825Z,55
2019-02-12T07:40:28.835Z,55
2019-02-12T07:41:38.746Z,55
2019-02-12T07:42:48.679Z,60
2019-02-12T07:43:58.599Z,70
2019-02-12T07:45:08.354Z,75
2019-02-12T07:46:18.381Z,75
2019-02-12T07:47:28.300Z,85
2019-02-12T07:48:38.215Z,90
2019-02-12T07:49:48.170Z,95
2019-02-12T07:50:58.087Z,100
2019-02-12T07:52:08.069Z,100
2019-02-12T07:53:17.759Z,100
2019-02-12T07:54:27.692Z,105
2019-02-12T07:55:37.615Z,105
2019-02-12T07:56:47.543Z,105
2019-02-12T07:57:57.569Z,105
2019-02-12T07:59:07.489Z,105
2019-02-12T08:00:17.412Z,110
2019-02-12T08:01:27.326Z,105
2019-02-12T08:02:38.681Z,105
2019-02-12T08:03:48.711Z,105
2019-02-12T08:04:58.662Z,105
2019-02-12T08:06:08.587Z,105
2019-02-12T08:07:18.507Z,100
2019-02-12T08:08:28.419Z,95
2019-02-12T08:09:38.444Z,95
2019-02-12T08:10:48.372Z,90
2019-02-12T08:11:58.293Z,90
2019-02-12T08:13:08.205Z,90
2019-02-12T08:14:18.138Z,90
2019-02-12T08:15:28.176Z,90
2019-02-12T08:16:38.116Z,95
2019-02-12T08:17:48.040Z,95
2019-02-12T08:18:57.989Z,95
2019-02-12T08:20:07.911Z,100
2019-02-12T08:21:17.886Z,100
2019-02-12T08:22:27.819Z,100
2019-02-12T08:23:45.952Z,105
2019-02-12T08:24:55.890Z,105
2019-02-12T08:26:05.806Z,105
2019-02-12T08:27:15.892Z,105
2019-02-12T08:28:25.836Z,110
2019-02-12T08:29:35.765Z,110
2019-02-12T08:30:45.703Z,115
2019-02-12T08:31:55.623Z,115
2019-02-12T08:33:05.640Z,120
2019-02-12T08:34:15.555Z,125
2019-02-12T08:35:25.485Z,130
2019-02-12T08:36:35.419Z,135
2019-02-12T08:37:45.356Z,135
2019-02-12T08:38:55.031Z,140
2019-02-12T08:40:05.290Z,135
2019-02-12T08:41:15.231Z,135
2019-02-12T08:42:25.171Z,135
2019-02-12T08:43:35.106Z,135
2019-02-12T08:44:45.097Z,140
2019-02-12T08:45:54.775Z,140
2019-02-12T08:47:04.700Z,145
2019-02-12T08:48:14.642Z,145
2019-02-12T08:49:24.570Z,150
2019-02-12T08:50:34.482Z,155
2019-02-12T08:51:44.401Z,160
2019-02-12T08:52:54.374Z,165
2019-02-12T08:54:04.316Z,170
2019-02-12T08:55:14.264Z,175
2019-02-12T08:56:24.294Z,180
2019-02-12T08:57:34.209Z,180
2019-02-12T08:58:44.123Z,185
2019-02-12T08:59:54.042Z,190
2019-02-12T09:01:04.015Z,195
2019-02-12T09:02:14.042Z,200
2019-02-12T09:03:23.961Z,210
2019-02-12T09:04:33.887Z,215
2019-02-12T09:05:43.825Z,225
2019-02-12T09:06:53.751Z,230
2019-02-12T09:08:03.738Z,235
2019-02-12T09:09:13.703Z,235
2019-02-12T09:10:23.665Z,235
2019-02-12T09:11:33.638Z,230
2019-02-12T09:12:43.570Z,230
2019-02-12T09:13:53.590Z,230
2019-02-12T09:15:03.518Z,240
2019-02-12T09:16:13.472Z,245
2019-02-12T09:17:23.394Z,245
2019-02-12T09:18:33.332Z,250
2019-02-12T09:19:43.360Z,250
2019-02-12T09:20:53.301Z,255
2019-02-12T09:22:03.255Z,265
2019-02-12T09:23:13.187Z,260
2019-02-12T09:24:23.118Z,260
2019-02-12T09:25:33.148Z,260
2019-02-12T09:26:43.075Z,255
2019-02-12T09:27:52.997Z,255
2019-02-12T09:29:02.917Z,250
2019-02-12T09:30:12.877Z,240
2019-02-12T09:31:22.618Z,235
2019-02-12T09:32:32.536Z,230
2019-02-12T09:33:42.459Z,220
2019-02-12T09:34:52.381Z,220
2019-02-12T09:36:02.305Z,215
2019-02-12T09:37:12.250Z,210
2019-02-12T09:38:22.178Z,210
2019-02-12T09:39:32.097Z,210
2019-02-12T09:40:42.016Z,210
2019-02-12T09:41:51.950Z,220
2019-02-12T09:43:01.920Z,220
2019-02-12T09:44:11.841Z,225
2019-02-12T09:45:21.760Z,235
2019-02-12T09:46:31.678Z,240
2019-02-12T09:47:41.610Z,245
2019-02-12T09:48:51.641Z,250
2019-02-12T09:50:01.320Z,255
2019-02-12T09:51:11.262Z,255
2019-02-12T09:52:21.199Z,260
2019-02-12T09:53:31.116Z,255
2019-02-12T09:54:41.128Z,250
2019-02-12T09:55:51.092Z,245
2019-02-12T09:57:01.024Z,255
2019-02-12T09:58:10.967Z,255
2019-02-12T09:59:20.879Z,255
2019-02-12T10:00:30.814Z,255
2019-02-12T10:01:40.760Z,250
2019-02-12T10:02:50.443Z,245
2019-02-12T10:04:00.375Z,240
2019-02-12T10:05:10.299Z,240
2019-02-12T10:06:29.230Z,240
2019-02-12T10:07:39.690Z,245
2019-02-12T10:08:49.649Z,250
2019-02-12T10:09:59.566Z,255
2019-02-12T10:11:09.531Z,260
2019-02-12T10:12:19.514Z,270
2019-02-12T10:13:29.433Z,270
2019-02-12T10:14:39.363Z,270
2019-02-12T10:15:49.288Z,265
2019-02-12T10:16:59.203Z,255
2019-02-12T10:18:09.123Z,255
2019-02-12T10:19:19.193Z,260
2019-02-12T10:20:29.140Z,260
2019-02-12T10:21:39.061Z,265
2019-02-12T10:22:48.758Z,270
2019-02-12T10:23:58.810Z,275
2019-02-12T10:25:08.744Z,270
2019-02-12T10:26:18.665Z,265
2019-02-12T10:27:28.580Z,260
2019-02-12T10:28:38.514Z,255
2019-02-12T10:29:48.564Z,255
2019-02-12T10:30:58.549Z,255
2019-02-12T10:32:17.880Z,245
2019-02-12T10:33:27.817Z,245
2019-02-12T10:34:37.751Z,240
2019-02-12T10:35:47.746Z,240
2019-02-12T10:36:57.667Z,240
2019-02-12T10:38:07.597Z,240
2019-02-12T10:39:17.539Z,245
2019-02-12T10:40:27.503Z,250
2019-02-12T10:41:37.520Z,255
2019-02-12T10:42:47.438Z,265
2019-02-12T10:43:57.358Z,275
2019-02-12T10:45:07.522Z,290
2019-02-12T10:46:17.454Z,295
2019-02-12T10:47:28.149Z,295
2019-02-12T10:48:38.075Z,295
2019-02-12T10:49:48.016Z,300
2019-02-12T10:50:57.938Z,310
2019-02-12T10:52:07.856Z,315
2019-02-12T10:53:18.574Z,320
2019-02-12T10:54:35.796Z,330
2019-02-12T10:55:45.715Z,335
2019-02-12T10:56:55.637Z,340
2019-02-12T10:58:06.451Z,345
2019-02-12T10:59:16.956Z,340
2019-02-12T11:00:26.872Z,340
2019-02-12T11:01:36.790Z,345
2019-02-12T11:02:46.706Z,355
2019-02-12T11:03:56.628Z,365
2019-02-12T11:05:06.648Z,370
2019-02-12T11:06:16.571Z,380
2019-02-12T11:07:26.488Z,385
2019-02-12T11:08:36.406Z,390
2019-02-12T11:09:46.325Z,390
2019-02-12T11:10:55.994Z,395
2019-02-12T11:12:05.916Z,400
2019-02-12T11:13:15.835Z,405
2019-02-12T11:14:25.753Z,420
2019-02-12T11:15:35.669Z,425
2019-02-12T11:16:45.693Z,430
2019-02-12T11:17:55.618Z,415
2019-02-12T11:19:05.538Z,410
2019-02-12T11:20:15.466Z,400
2019-02-12T11:21:25.385Z,400
2019-02-12T11:22:35.353Z,405
2019-02-12T11:23:45.269Z,405
2019-02-12T11:24:55.185Z,395
2019-02-12T11:26:05.100Z,400
2019-02-12T11:27:15.037Z,390
2019-02-12T11:28:25.007Z,380
2019-02-12T11:29:35.301Z,375
2019-02-12T11:30:45.220Z,365
2019-02-12T11:31:55.142Z,360
2019-02-12T11:33:05.059Z,350
2019-02-12T11:34:16.377Z,345
2019-02-12T11:35:26.307Z,345
2019-02-12T11:36:36.229Z,345
2019-02-12T11:37:46.152Z,340
2019-02-12T11:38:56.071Z,335
2019-02-12T11:40:05.843Z,335
2019-02-12T11:41:15.760Z,330
2019-02-12T11:42:25.683Z,330
2019-02-12T11:43:35.600Z,325
2019-02-12T11:44:45.515Z,325
2019-02-12T11:45:55.533Z,320
2019-02-12T11:47:05.459Z,315
2019-02-12T11:48:15.376Z,315
2019-02-12T11:49:25.323Z,310
2019-02-12T11:50:35.238Z,305
2019-02-12T11:51:45.005Z,305
2019-02-12T11:52:54.925Z,305
2019-02-12T11:54:04.842Z,305
2019-02-12T11:55:14.769Z,305
2019-02-12T11:56:24.710Z,300
2019-02-12T11:57:34.686Z,295
2019-02-12T11:58:44.603Z,295
2019-02-12T11:59:54.831Z,295
2019-02-12T12:01:04.746Z,290
2019-02-12T12:02:14.664Z,285
2019-02-12T12:03:24.679Z,280
2019-02-12T12:04:34.598Z,270
2019-02-12T12:05:44.529Z,265
2019-02-12T12:06:54.445Z,255
2019-02-12T12:08:04.370Z,250
2019-02-12T12:09:14.388Z,245
2019-02-12T12:10:24.323Z,240
2019-02-12T12:11:34.249Z,235
2019-02-12T12:12:44.174Z,240
2019-02-12T12:13:54.095Z,240
2019-02-12T12:15:04.064Z,245
2019-02-12T12:16:13.991Z,245
2019-02-12T12:17:23.925Z,245
2019-02-12T12:18:33.840Z,250
2019-02-12T12:19:43.755Z,250
2019-02-12T12:20:53.742Z,250
2019-02-12T12:22:03.669Z,250
2019-02-12T12:23:13.593Z,250
2019-02-12T12:24:23.510Z,250
2019-02-12T12:25:33.433Z,250
2019-02-12T12:26:43.409Z,250
2019-02-12T12:27:53.330Z,245
2019-02-12T12:29:03.259Z,245
2019-02-12T12:30:13.187Z,240
2019-02-12T12:31:23.107Z,245
2019-02-12T12:32:33.126Z,245
2019-02-12T12:33:43.049Z,245
2019-02-12T12:34:52.985Z,250
2019-02-12T12:36:02.926Z,250
2019-02-12T12:37:12.844Z,255
2019-02-12T12:38:22.831Z,260
2019-02-12T12:39:32.757Z,265
2019-02-12T12:40:42.674Z,260
2019-02-12T12:41:52.587Z,255
2019-02-12T12:43:02.544Z,250
2019-02-12T12:44:12.582Z,245
2019-02-12T12:45:22.028Z,245
2019-02-12T12:46:31.705Z,240
2019-02-12T12:47:41.636Z,235
2019-02-12T12:48:51.558Z,235
2019-02-12T12:50:01.703Z,235
2019-02-12T12:51:11.624Z,235
2019-02-12T12:52:21.587Z,235
2019-02-12T12:53:31.535Z,230
2019-02-12T12:54:41.468Z,225
2019-02-12T12:55:51.495Z,225
2019-02-12T12:57:01.471Z,225
2019-02-12T12:58:11.137Z,225
2019-02-12T12:59:21.059Z,230
2019-02-12T13:00:30.975Z,240
2019-02-12T13:01:41.019Z,245
2019-02-12T13:02:50.991Z,245
2019-02-12T13:04:00.916Z,245
2019-02-12T13:05:13.559Z,235
2019-02-12T13:06:23.510Z,230
2019-02-12T13:07:34.935Z,225
2019-02-12T13:08:46.413Z,220
2019-02-12T13:09:56.076Z,210
2019-02-12T13:11:05.992Z,205
2019-02-12T13:12:15.906Z,200
2019-02-12T13:13:26.536Z,200
2019-02-12T13:14:38.202Z,200
2019-02-12T13:15:48.130Z,200
2019-02-12T13:16:58.066Z,195
2019-02-12T13:18:09.392Z,180
2019-02-12T13:19:19.408Z,175
2019-02-12T13:20:29.321Z,160
2019-02-12T13:21:39.242Z,150
2019-02-12T13:22:49.199Z,150
2019-02-12T13:24:00.931Z,150
2019-02-12T13:25:18.076Z,145
2019-02-12T13:26:27.996Z,145
2019-02-12T13:27:37.916Z,145
2019-02-12T13:28:47.832Z,145
2019-02-12T13:29:57.762Z,140
2019-02-12T13:31:07.729Z,140
2019-02-12T13:32:17.646Z,135
2019-02-12T13:33:29.063Z,135
2019-02-12T13:34:38.978Z,130
2019-02-12T13:35:48.897Z,130
2019-02-12T13:36:58.810Z,130
2019-02-12T13:38:08.760Z,125
2019-02-12T13:39:18.686Z,120
2019-02-12T13:40:28.610Z,120
2019-02-12T13:41:38.530Z,115
2019-02-12T13:42:49.698Z,110
2019-02-12T13:43:59.617Z,110
2019-02-12T13:45:09.534Z,105
2019-02-12T13:46:19.517Z,105
2019-02-12T13:47:29.444Z,105
2019-02-12T13:48:39.470Z,100
2019-02-12T13:49:49.393Z,100
2019-02-12T13:50:59.320Z,95
2019-02-12T13:52:09.246Z,95
2019-02-12T13:53:19.171Z,95
2019-02-12T13:54:29.186Z,100
2019-02-12T13:55:39.112Z,100
2019-02-12T13:56:49.030Z,95
2019-02-12T13:57:58.964Z,95
2019-02-12T13:59:08.877Z,90
2019-02-12T14:00:18.907Z,90
2019-02-12T14:01:28.839Z,85
2019-02-12T14:02:38.767Z,85
2019-02-12T14:03:49.003Z,85
2019-02-12T14:04:58.981Z,85
2019-02-12T14:06:09.212Z,85
2019-02-12T14:07:18.921Z,85
2019-02-12T14:08:28.885Z,85
2019-02-12T14:09:38.802Z,80
2019-02-12T14:10:48.729Z,75
2019-02-12T14:11:58.741Z,75
2019-02-12T14:13:08.681Z,70
2019-02-12T14:14:19.534Z,65
2019-02-12T14:15:29.507Z,65
2019-02-12T14:16:39.421Z,60
2019-02-12T14:17:49.384Z,60
2019-02-12T14:18:59.321Z,65
2019-02-12T14:20:09.237Z,65
2019-02-12T14:21:19.152Z,65
2019-02-12T14:22:29.064Z,65
2019-02-12T14:23:39.096Z,65
2019-02-12T14:24:49.030Z,65
2019-02-12T14:25:58.948Z,65
2019-02-12T14:27:08.864Z,65
2019-02-12T14:28:18.778Z,65
2019-02-12T14:29:28.812Z,65
2019-02-12T14:30:38.771Z,60
2019-02-12T14:31:57.563Z,60
2019-02-12T14:33:07.475Z,55
2019-02-12T14:34:17.388Z,55
2019-02-12T14:35:27.053Z,55
2019-02-12T14:36:36.975Z,50
2019-02-12T14:37:46.923Z,50
2019-02-12T14:38:58.257Z,45
2019-02-12T14:40:07.936Z,45
2019-02-12T14:41:17.958Z,40
2019-02-12T14:42:27.879Z,40
2019-02-12T14:43:37.802Z,35
2019-02-12T14:44:47.749Z,35
2019-02-12T14:45:57.676Z,35
2019-02-12T14:47:07.699Z,30
2019-02-12T14:48:17.371Z,30
2019-02-12T14:49:27.288Z,30
2019-02-12T14:50:37.204Z,30
2019-02-12T14:51:47.129Z,30
2019-02-12T14:52:57.151Z,30
2019-02-12T14:54:07.381Z,30
2019-02-12T14:55:17.401Z,35
2019-02-12T14:56:27.328Z,35
2019-02-12T14:57:37.247Z,40
2019-02-12T14:58:47.224Z,40
2019-02-12T14:59:57.167Z,45
2019-02-12T15:01:07.086Z,50
2019-02-12T15:02:16.999Z,50
2019-02-12T15:03:26.916Z,50
2019-02-12T15:04:36.934Z,50
2019-02-12T15:05:46.846Z,45
2019-02-12T15:06:56.765Z,45
2019-02-12T15:08:06.677Z,40
2019-02-12T15:09:16.591Z,35
2019-02-12T15:10:26.299Z,35
2019-02-12T15:11:36.224Z,35
2019-02-12T15:12:46.156Z,30
2019-02-12T15:13:56.078Z,30
2019-02-12T15:15:06.002Z,30
2019-02-12T15:16:15.973Z,25
2019-02-12T15:17:25.886Z,25
2019-02-12T15:18:35.805Z,25
2019-02-12T15:19:45.719Z,25
2019-02-12T15:20:55.638Z,20
2019-02-12T15:22:05.654Z,20
2019-02-12T15:23:15.575Z,20
2019-02-12T15:24:25.488Z,20
2019-02-12T15:25:41.757Z,20
2019-02-12T15:26:51.887Z,20
2019-02-12T15:28:01.904Z,20
2019-02-12T15:29:11.825Z,20
2019-02-12T15:30:21.755Z,20
2019-02-12T15:31:31.426Z,20
2019-02-12T15:32:41.351Z,20
2019-02-12T15:33:51.279Z,20
2019-02-12T15:35:01.193Z,20
2019-02-12T15:36:11.112Z,15
2019-02-12T15:37:21.029Z,15
2019-02-12T15:38:30.945Z,15
2019-02-12T15:39:40.909Z,15
2019-02-12T15:40:50.826Z,15
2019-02-12T15:42:00.744Z,10
2019-02-12T15:43:10.668Z,10
2019-02-12T15:44:20.583Z,10
2019-02-12T15:45:30.599Z,10
2019-02-12T15:46:40.519Z,10
2019-02-12T15:47:50.443Z,10
2019-02-12T15:49:00.361Z,10
2019-02-12T15:50:10.280Z,10
2019-02-12T15:51:20.253Z,5
2019-02-12T15:52:30.165Z,5
2019-02-12T15:53:40.102Z,5
2019-02-12T15:54:50.020Z,5
2019-02-12T15:56:01.146Z,5
2019-02-12T15:57:11.165Z,5
2019-02-12T15:58:21.079Z,5
2019-02-12T15:59:33.531Z,5
2019-02-12T16:00:45.878Z,0
2019-02-12T16:01:58.420Z,0
2019-02-12T16:03:08.393Z,0
2019-02-12T16:04:19.649Z,0
2019-02-12T16:05:30.688Z,0
2019-02-12T16:06:44.592Z,0
2019-02-12T16:07:56.875Z,0
2019-02-12T16:09:06.904Z,0
2019-02-12T16:10:19.603Z,0
2019-02-12T16:11:30.497Z,0
2019-02-12T16:12:40.408Z,0
2019-02-12T16:13:50.320Z,0
2019-02-12T16:15:04.090Z,0
2019-02-12T16:16:17.099Z,0
2019-02-12T16:17:27.014Z,0
2019-02-12T16:18:36.974Z,0
2019-02-12T16:19:49.153Z,0
2019-02-12T16:20:59.130Z,0
2019-02-12T16:22:09.041Z,0
2019-02-12T16:23:18.999Z,0
2019-02-12T16:24:28.931Z,0
2019-02-12T16:25:38.610Z,0
2019-02-12T16:26:48.527Z,0
2019-02-12T16:27:58.456Z,0
2019-02-12T16:29:08.376Z,0
2019-02-12T16:30:18.301Z,0
2019-02-12T16:31:28.247Z,0
2019-02-12T16:32:38.166Z,0
2019-02-12T16:33:48.079Z,0
2019-02-12T16:34:57.991Z,0
2019-02-12T16:36:07.963Z,0
2019-02-12T16:37:17.886Z,0
2019-02-12T16:38:27.922Z,0
2019-02-12T16:39:37.836Z,0
2019-02-12T16:40:47.755Z,0
2019-02-12T16:41:57.673Z,0
2019-02-12T16:43:07.593Z,0
2019-02-12T16:44:19.392Z,0